Terminal Aerodrome Forecast
Issued by NWS

Home | Current Version | Previous Version | Text Only | Print | Product List | Glossary On
Versions: 1 2 3 4 5 6 7 8 9 10 11 12
000
FTUS42 TJSJ 261133
TAFJBQ
TAF
TJBQ 261133Z 2612/2712 00000KT P6SM SKC
     FM261400 35007KT P6SM SCT030
     FM261930 29008KT P6SM VCSH SCT020 SCT030 BKN050
     FM262300 34005KT P6SM SCT025
      AMD NOT SKED 2702/2711=

USA.gov is the U.S. government's official web portal to all federal, state and local government web resources and services.